createdAt,value
2018-03-07T00:20:57.659Z,70.40
2018-03-07T00:23:25.620Z,71.90
2018-03-07T00:25:53.492Z,75.33
2018-03-07T00:28:22.080Z,78.47
2018-03-07T00:30:50.120Z,77.73
2018-03-07T00:33:18.732Z,64.70
2018-03-07T00:35:46.803Z,73.80
2018-03-07T00:38:15.683Z,77.87
2018-03-07T00:40:43.739Z,73.83
2018-03-07T00:43:11.508Z,79.77
2018-03-07T00:45:39.394Z,101.37
2018-03-07T00:48:07.340Z,87.53
2018-03-07T00:50:35.328Z,86.83
2018-03-07T00:53:04.109Z,92.13
2018-03-07T00:55:31.964Z,91.23
2018-03-07T00:57:59.831Z,94.47
2018-03-07T01:00:28.218Z,97.17
2018-03-07T01:02:56.196Z,94.43
2018-03-07T01:05:23.960Z,91.27
2018-03-07T01:07:51.987Z,90.13
2018-03-07T01:10:19.911Z,109.37
2018-03-07T01:12:47.867Z,110.90
2018-03-07T01:15:17.164Z,116.27
2018-03-07T01:17:45.196Z,116.10
2018-03-07T01:20:13.188Z,109.60
2018-03-07T01:22:41.337Z,117.93
2018-03-07T01:25:09.233Z,104.93
2018-03-07T01:27:37.002Z,111.20
2018-03-07T01:30:05.353Z,106.33
2018-03-07T01:32:33.360Z,108.20
2018-03-07T01:35:01.334Z,110.37
2018-03-07T01:37:29.405Z,99.17
2018-03-07T01:39:57.571Z,95.03
2018-03-07T01:42:25.425Z,92.37
2018-03-07T01:44:53.206Z,90.17
2018-03-07T01:47:21.072Z,101.50
2018-03-07T01:49:51.208Z,120.40
2018-03-07T01:52:19.765Z,95.30
2018-03-07T01:54:47.733Z,120.10
2018-03-07T01:57:15.703Z,84.97
2018-03-07T01:59:43.506Z,92.20
2018-03-07T02:02:12.116Z,80.53
2018-03-07T02:04:39.930Z,85.30
2018-03-07T02:07:07.869Z,72.37
2018-03-07T02:09:35.866Z,120.33
2018-03-07T02:12:03.808Z,100.93
2018-03-07T02:14:31.636Z,134.33
2018-03-07T02:16:59.606Z,155.07
2018-03-07T02:19:27.581Z,187.50
2018-03-07T02:21:55.677Z,163.30
2018-03-07T02:24:23.580Z,135.87
2018-03-07T02:26:51.722Z,139.63
2018-03-07T02:29:19.600Z,146.60
2018-03-07T02:31:47.682Z,165.57
2018-03-07T02:34:16.265Z,146.07
2018-03-07T02:36:44.049Z,148.47
2018-03-07T02:39:13.404Z,139.63
2018-03-07T02:41:41.336Z,172.30
2018-03-07T02:44:09.271Z,183.70
2018-03-07T02:46:37.216Z,160.60
2018-03-07T02:49:05.181Z,140.97
2018-03-07T02:51:33.050Z,153.90
2018-03-07T02:54:02.086Z,167.87
2018-03-07T02:56:30.950Z,181.60
2018-03-07T02:58:59.329Z,189.53
2018-03-07T03:01:27.589Z,185.53
2018-03-07T03:03:55.678Z,158.80
2018-03-07T03:06:23.627Z,145.80
2018-03-07T03:08:51.514Z,133.67
2018-03-07T03:11:19.385Z,145.47
2018-03-07T03:13:47.345Z,144.37
2018-03-07T03:16:15.573Z,126.13
2018-03-07T03:18:43.572Z,118.30
2018-03-07T03:21:11.444Z,109.53
2018-03-07T03:23:39.351Z,111.77
2018-03-07T03:26:08.022Z,122.03
2018-03-07T03:28:36.057Z,121.17
2018-03-07T03:31:03.951Z,101.47
2018-03-07T03:33:31.998Z,95.17
2018-03-07T03:36:00.198Z,82.47
2018-03-07T03:38:29.422Z,89.27
2018-03-07T03:40:58.175Z,102.03
2018-03-07T03:43:26.330Z,119.07
2018-03-07T03:45:54.401Z,115.03
2018-03-07T03:48:22.388Z,121.43
2018-03-07T03:50:50.236Z,120.20
2018-03-07T03:53:18.126Z,107.40
2018-03-07T03:55:45.990Z,119.50
2018-03-07T03:58:14.038Z,124.43
2018-03-07T04:00:41.826Z,117.27
2018-03-07T04:03:09.673Z,126.10
2018-03-07T04:05:37.566Z,127.60
2018-03-07T04:08:05.502Z,140.03
2018-03-07T04:10:33.490Z,141.13
2018-03-07T04:13:01.362Z,156.57
2018-03-07T04:15:29.535Z,139.80
2018-03-07T04:17:57.620Z,152.13
2018-03-07T04:20:25.561Z,144.07
2018-03-07T04:22:53.443Z,161.57
2018-03-07T04:25:21.386Z,163.67
2018-03-07T04:27:51.005Z,141.23
2018-03-07T04:30:19.069Z,156.17
2018-03-07T04:32:47.036Z,172.37
2018-03-07T04:35:15.208Z,136.90
2018-03-07T04:37:42.991Z,146.40
2018-03-07T04:40:10.767Z,160.27
2018-03-07T04:42:38.809Z,161.73
2018-03-07T04:45:06.677Z,178.83
2018-03-07T04:47:34.741Z,191.27
2018-03-07T04:50:02.517Z,148.03
2018-03-07T04:52:31.192Z,148.63
2018-03-07T04:54:59.161Z,125.97
2018-03-07T04:57:27.140Z,110.13
2018-03-07T04:59:55.016Z,155.37
2018-03-07T05:02:22.988Z,135.93
2018-03-07T05:04:50.856Z,135.43
2018-03-07T05:07:18.701Z,129.03
2018-03-07T05:09:46.697Z,119.90
2018-03-07T05:12:15.071Z,106.43
2018-03-07T05:14:43.118Z,115.67
2018-03-07T05:17:11.290Z,107.37
2018-03-07T05:19:39.050Z,105.70
2018-03-07T05:22:06.966Z,87.20
2018-03-07T05:24:35.719Z,95.00
2018-03-07T05:27:03.884Z,87.13
2018-03-07T05:29:31.648Z,73.10
2018-03-07T05:31:59.444Z,92.03
2018-03-07T05:34:27.730Z,89.47
2018-03-07T05:36:56.440Z,103.80
2018-03-07T05:39:24.369Z,108.97
2018-03-07T05:41:52.247Z,135.17
2018-03-07T05:44:21.043Z,89.23
2018-03-07T05:46:49.610Z,90.60
2018-03-07T05:49:17.573Z,110.00
2018-03-07T05:51:45.515Z,94.27
2018-03-07T05:54:13.331Z,95.20
2018-03-07T05:56:42.214Z,90.10
2018-03-07T05:59:10.063Z,91.53
2018-03-07T06:01:37.939Z,89.90
2018-03-07T06:04:05.987Z,80.37
2018-03-07T06:06:33.852Z,94.67
2018-03-07T06:09:01.813Z,78.60
2018-03-07T06:11:30.295Z,81.10
2018-03-07T06:13:58.572Z,82.67
2018-03-07T06:16:26.745Z,117.43
2018-03-07T06:18:54.749Z,117.77
2018-03-07T06:21:22.998Z,91.70
2018-03-07T06:23:51.001Z,121.47
2018-03-07T06:26:39.248Z,101.07
2018-03-07T06:29:08.223Z,146.37
2018-03-07T06:31:36.556Z,123.07
2018-03-07T06:34:09.152Z,113.87
2018-03-07T06:36:37.221Z,97.37
2018-03-07T06:39:05.189Z,101.47
2018-03-07T06:41:33.196Z,119.63
2018-03-07T06:44:01.162Z,94.17
2018-03-07T06:46:29.854Z,121.17
2018-03-07T06:48:59.628Z,104.03
2018-03-07T06:51:27.597Z,114.97
2018-03-07T06:53:55.484Z,101.03
2018-03-07T06:56:23.545Z,101.17
2018-03-07T06:58:51.508Z,83.83
2018-03-07T07:01:19.478Z,74.90
2018-03-07T07:03:47.364Z,91.33
2018-03-07T07:06:15.237Z,118.63
2018-03-07T07:08:43.170Z,128.80
2018-03-07T07:11:11.243Z,101.30
2018-03-07T07:13:39.211Z,109.17
2018-03-07T07:16:07.177Z,106.90
2018-03-07T07:18:35.153Z,96.13
2018-03-07T07:21:03.221Z,101.93
2018-03-07T07:23:31.523Z,111.00
2018-03-07T07:25:59.368Z,87.17
2018-03-07T07:28:27.168Z,92.40
2018-03-07T07:30:55.741Z,69.03
2018-03-07T07:33:23.595Z,67.87
2018-03-07T07:35:51.473Z,75.00
2018-03-07T07:38:19.416Z,71.80
2018-03-07T07:40:47.310Z,67.53
2018-03-07T07:43:15.176Z,68.70
2018-03-07T07:45:43.140Z,57.93
2018-03-07T07:48:10.981Z,49.23
2018-03-07T07:50:38.950Z,47.73
2018-03-07T07:53:06.846Z,47.30
2018-03-07T07:55:34.804Z,41.60
2018-03-07T07:58:03.470Z,40.93
2018-03-07T08:00:31.547Z,42.43
2018-03-07T08:02:59.613Z,40.90
2018-03-07T08:05:27.739Z,40.03
2018-03-07T08:07:56.304Z,40.13
2018-03-07T08:10:24.969Z,36.60
2018-03-07T08:12:52.921Z,37.10
2018-03-07T08:15:20.814Z,35.43
2018-03-07T08:17:48.791Z,33.83
2018-03-07T08:20:17.472Z,34.07
2018-03-07T08:22:45.440Z,32.80
2018-03-07T08:25:13.408Z,36.87
2018-03-07T08:27:42.063Z,27.03
2018-03-07T08:30:10.040Z,27.60
2018-03-07T08:32:38.021Z,29.50
2018-03-07T08:35:05.817Z,26.37
2018-03-07T08:37:34.471Z,25.70
2018-03-07T08:40:02.417Z,27.80
2018-03-07T08:42:30.512Z,19.97
2018-03-07T08:44:59.282Z,24.93
2018-03-07T08:47:27.186Z,22.37
2018-03-07T08:49:55.845Z,17.40
2018-03-07T08:52:23.717Z,19.60
2018-03-07T08:54:51.599Z,19.07
2018-03-07T08:57:19.552Z,17.83
2018-03-07T08:59:47.426Z,21.33
2018-03-07T09:02:15.332Z,20.27
2018-03-07T09:04:43.156Z,21.73
2018-03-07T09:07:11.101Z,16.07
2018-03-07T09:09:39.276Z,19.30
2018-03-07T09:12:07.176Z,17.87
2018-03-07T09:14:35.148Z,19.03
2018-03-07T09:17:03.829Z,17.37
2018-03-07T09:19:31.887Z,16.37
2018-03-07T09:21:59.751Z,13.73
2018-03-07T09:24:28.038Z,15.23
2018-03-07T09:26:56.907Z,14.23
2018-03-07T09:29:25.090Z,13.63
2018-03-07T09:31:53.163Z,13.53
2018-03-07T09:34:21.047Z,9.90
2018-03-07T09:36:49.183Z,7.67
2018-03-07T09:39:17.175Z,7.23
2018-03-07T09:41:45.053Z,8.13
2018-03-07T09:44:13.092Z,5.80
2018-03-07T09:46:41.060Z,6.00
2018-03-07T09:49:09.078Z,5.47
2018-03-07T09:51:37.750Z,5.73
2018-03-07T09:54:05.811Z,6.00
2018-03-07T09:56:34.110Z,9.43
2018-03-07T09:59:02.748Z,6.03
2018-03-07T10:01:30.735Z,5.53
2018-03-07T10:03:58.708Z,5.10
2018-03-07T10:06:26.843Z,4.60
2018-03-07T10:08:55.342Z,5.03
2018-03-07T10:11:23.316Z,4.63
2018-03-07T10:13:51.378Z,3.50
2018-03-07T10:16:19.282Z,2.60
2018-03-07T10:18:48.957Z,5.30
2018-03-07T10:21:17.170Z,3.77
2018-03-07T10:23:45.938Z,3.00
2018-03-07T10:26:13.927Z,3.73
2018-03-07T10:28:42.800Z,3.67
2018-03-07T10:31:10.778Z,4.17
2018-03-07T10:33:38.818Z,3.47
2018-03-07T10:36:06.638Z,3.73
2018-03-07T10:38:35.345Z,3.73
2018-03-07T10:41:03.357Z,5.20
2018-03-07T10:43:32.123Z,4.33
2018-03-07T10:46:00.130Z,3.97
2018-03-07T10:48:28.406Z,4.40
2018-03-07T10:50:56.694Z,4.97
2018-03-07T10:53:25.445Z,4.10
2018-03-07T10:55:53.433Z,5.73
2018-03-07T10:58:23.231Z,5.50
2018-03-07T11:00:51.197Z,3.70
2018-03-07T11:03:19.263Z,4.67
2018-03-07T11:05:47.284Z,4.30
2018-03-07T11:08:15.948Z,5.50
2018-03-07T11:10:43.984Z,4.73
2018-03-07T11:13:11.954Z,3.93
2018-03-07T11:15:39.951Z,6.33
2018-03-07T11:18:07.997Z,4.03
2018-03-07T11:20:35.995Z,4.40
2018-03-07T11:23:04.749Z,12.67
2018-03-07T11:25:32.870Z,5.67
2018-03-07T11:28:01.856Z,8.10
2018-03-07T11:30:30.843Z,3.67
2018-03-07T11:32:58.896Z,4.40
2018-03-07T11:35:27.231Z,4.63
2018-03-07T11:37:55.160Z,5.97
2018-03-07T11:40:23.939Z,5.17
2018-03-07T11:42:52.359Z,5.63
2018-03-07T11:45:20.490Z,4.77
2018-03-07T11:47:48.537Z,6.60
2018-03-07T11:50:16.538Z,4.03
2018-03-07T11:52:44.674Z,4.07
2018-03-07T11:55:12.680Z,10.13
2018-03-07T11:57:41.340Z,2.97
2018-03-07T12:00:09.506Z,4.40
2018-03-07T12:02:37.443Z,2.20
2018-03-07T12:05:05.322Z,3.00
2018-03-07T12:07:33.191Z,2.40
2018-03-07T12:10:01.278Z,4.60
2018-03-07T12:12:29.474Z,1.83
2018-03-07T12:14:57.540Z,2.03
2018-03-07T12:17:31.864Z,1.90
2018-03-07T12:20:00.024Z,2.63
2018-03-07T12:22:28.194Z,3.20
2018-03-07T12:24:56.464Z,3.00
2018-03-07T12:27:24.345Z,3.27
2018-03-07T12:29:52.515Z,3.73
2018-03-07T12:32:20.501Z,6.47
2018-03-07T12:34:48.571Z,1.83
2018-03-07T12:37:16.625Z,7.80
2018-03-07T12:39:44.499Z,6.00
2018-03-07T12:42:12.492Z,2.77
2018-03-07T12:44:41.242Z,5.43
2018-03-07T12:47:09.302Z,3.00
2018-03-07T12:49:37.213Z,2.33
2018-03-07T12:52:06.383Z,1.50
2018-03-07T12:54:34.473Z,1.80
2018-03-07T12:57:02.544Z,2.77
2018-03-07T12:59:30.815Z,5.30
2018-03-07T13:01:58.900Z,1.40
2018-03-07T13:04:27.893Z,1.83
2018-03-07T13:06:56.311Z,3.27
2018-03-07T13:09:24.516Z,1.47
2018-03-07T13:11:52.485Z,3.03
2018-03-07T13:14:20.684Z,2.60
2018-03-07T13:16:48.858Z,1.00
2018-03-07T13:19:16.821Z,1.83
2018-03-07T13:21:44.978Z,22.87
2018-03-07T13:24:12.979Z,62.77
2018-03-07T13:26:41.110Z,4.47
2018-03-07T13:29:09.288Z,1.73
2018-03-07T13:31:37.461Z,68.37
2018-03-07T13:34:05.351Z,2.23
2018-03-07T13:36:33.318Z,3.10
2018-03-07T13:39:01.397Z,3.23
2018-03-07T13:41:29.955Z,4.20
2018-03-07T13:43:58.473Z,5.87
2018-03-07T13:46:27.423Z,5.70
2018-03-07T13:48:55.597Z,2.43
2018-03-07T13:51:23.671Z,5.43
2018-03-07T13:53:51.845Z,1.53
2018-03-07T13:56:20.111Z,1.97
2018-03-07T13:58:48.012Z,3.23
2018-03-07T14:01:16.159Z,16.70
2018-03-07T14:03:44.943Z,19.77
2018-03-07T14:06:13.017Z,8.67
2018-03-07T14:08:41.007Z,2.10
2018-03-07T14:11:08.897Z,3.60
2018-03-07T14:13:37.663Z,59.40
2018-03-07T14:16:06.022Z,7.57
2018-03-07T14:23:55.222Z,1.60
2018-03-07T14:29:12.576Z,3.87
2018-03-07T14:31:40.499Z,6.10
2018-03-07T14:34:08.793Z,1.57
2018-03-07T14:36:37.616Z,3.30
2018-03-07T14:39:05.696Z,3.87
2018-03-07T14:41:33.835Z,20.63
2018-03-07T14:44:01.674Z,11.50
2018-03-07T14:46:29.588Z,33.97
2018-03-07T14:48:58.102Z,7.90
2018-03-07T14:54:58.113Z,34.57
2018-03-07T14:57:25.977Z,6.97
2018-03-07T14:59:53.938Z,6.43
2018-03-07T15:02:21.866Z,4.93
2018-03-07T15:04:49.869Z,6.80
2018-03-07T15:07:17.969Z,4.07
2018-03-07T15:09:46.011Z,6.40
2018-03-07T15:12:14.267Z,12.00
2018-03-07T15:14:42.466Z,7.37
2018-03-07T15:17:10.529Z,6.67
2018-03-07T15:19:38.802Z,5.33
2018-03-07T15:22:06.790Z,8.07
2018-03-07T15:24:34.795Z,6.80
2018-03-07T15:27:03.530Z,3.43
2018-03-07T15:29:31.510Z,13.43
2018-03-07T15:31:59.569Z,8.23
2018-03-07T15:34:27.771Z,5.30
2018-03-07T15:36:55.814Z,5.37
2018-03-07T15:39:24.031Z,3.60
2018-03-07T15:41:52.793Z,6.83
2018-03-07T15:44:20.718Z,1.87
2018-03-07T15:46:48.696Z,0.83
2018-03-07T15:49:16.699Z,0.90
2018-03-07T15:51:45.716Z,13.10
2018-03-07T15:54:14.552Z,0.83
2018-03-07T15:56:42.738Z,4.03
2018-03-07T15:59:10.838Z,20.10
2018-03-07T16:01:38.905Z,2.50
2018-03-07T16:04:06.874Z,2.23
2018-03-07T16:06:34.880Z,21.03
2018-03-07T16:09:02.709Z,13.60
2018-03-07T16:11:30.891Z,1.13
2018-03-07T16:14:00.567Z,1.53
2018-03-07T16:16:28.865Z,23.87
2018-03-07T16:18:56.946Z,5.90
2018-03-07T16:21:25.067Z,1.40
2018-03-07T16:23:52.934Z,1.47
2018-03-07T16:26:20.952Z,0.90
2018-03-07T16:28:49.006Z,1.97
2018-03-07T16:31:16.839Z,1.30
2018-03-07T16:33:44.870Z,5.70
2018-03-07T16:36:13.618Z,80.57
2018-03-07T16:38:41.504Z,104.83
2018-03-07T16:41:11.361Z,31.07
2018-03-07T16:43:39.368Z,2.70
2018-03-07T16:46:07.469Z,4.17
2018-03-07T16:48:35.524Z,13.23
2018-03-07T16:51:03.686Z,7.20
2018-03-07T16:53:31.754Z,4.00
2018-03-07T16:55:59.753Z,1.37
2018-03-07T16:58:28.462Z,4.77
2018-03-07T17:00:57.306Z,3.77
2018-03-07T17:03:25.475Z,1.50
2018-03-07T17:05:53.543Z,1.57
2018-03-07T17:08:21.929Z,3.50
2018-03-07T17:10:49.994Z,4.97
2018-03-07T17:13:18.020Z,7.17
2018-03-07T17:15:46.377Z,1.60
2018-03-07T17:18:14.390Z,11.70
2018-03-07T17:20:42.424Z,1.77
2018-03-07T17:23:11.097Z,2.10
2018-03-07T17:25:39.758Z,2.00
2018-03-07T17:28:07.926Z,6.90
2018-03-07T17:30:36.104Z,1.73
2018-03-07T17:33:04.195Z,2.70
2018-03-07T17:35:32.258Z,2.53
2018-03-07T17:38:00.215Z,2.73
2018-03-07T17:40:28.092Z,3.07
2018-03-07T17:42:56.304Z,10.03
2018-03-07T17:45:25.342Z,3.30
2018-03-07T17:47:53.212Z,3.37
2018-03-07T17:50:21.384Z,8.40
2018-03-07T17:52:49.363Z,3.10
2018-03-07T17:55:17.428Z,9.37
2018-03-07T17:57:46.037Z,2.50
2018-03-07T18:00:14.081Z,3.57
2018-03-07T18:02:42.256Z,2.90
2018-03-07T18:05:10.346Z,3.97
2018-03-07T18:07:38.906Z,4.73
2018-03-07T18:10:06.979Z,4.23
2018-03-07T18:12:34.871Z,3.10
2018-03-07T18:15:02.966Z,3.17
2018-03-07T18:17:31.824Z,11.30
2018-03-07T18:19:59.692Z,14.60
2018-03-07T18:22:27.895Z,12.13
2018-03-07T18:24:56.931Z,3.73
2018-03-07T18:27:25.846Z,1.67
2018-03-07T18:29:53.718Z,2.30
2018-03-07T18:32:21.798Z,4.13
2018-03-07T18:34:49.756Z,1.40
2018-03-07T18:37:17.810Z,1.67
2018-03-07T18:39:46.018Z,3.13
2018-03-07T18:42:13.980Z,2.00
2018-03-07T18:44:43.026Z,2.30
2018-03-07T18:47:11.847Z,1.77
2018-03-07T18:49:39.931Z,4.80
2018-03-07T18:52:08.207Z,5.83
2018-03-07T18:54:36.386Z,4.07
2018-03-07T18:57:05.227Z,2.20
2018-03-07T18:59:33.354Z,4.57
2018-03-07T19:02:01.503Z,2.63
2018-03-07T19:04:30.168Z,3.57
2018-03-07T19:06:58.892Z,4.37
2018-03-07T19:09:28.291Z,5.83
2018-03-07T19:11:56.541Z,4.43
2018-03-07T19:14:24.714Z,5.77
2018-03-07T19:16:52.760Z,8.23
2018-03-07T19:19:21.025Z,6.97
2018-03-07T19:21:49.231Z,5.73
2018-03-07T19:24:17.308Z,7.40
2018-03-07T19:26:45.783Z,4.93
2018-03-07T19:29:13.961Z,6.60
2018-03-07T19:31:42.442Z,7.83
2018-03-07T19:34:10.513Z,6.77
2018-03-07T19:36:38.788Z,7.67
2018-03-07T19:39:06.860Z,6.47
2018-03-07T19:41:35.018Z,5.27
2018-03-07T19:44:03.337Z,9.57
2018-03-07T19:46:32.369Z,12.80
2018-03-07T19:49:00.375Z,14.03
2018-03-07T19:51:28.641Z,6.73
2018-03-07T19:53:56.720Z,8.93
2018-03-07T19:56:24.912Z,15.43
2018-03-07T19:58:53.090Z,13.83
2018-03-07T20:01:21.347Z,15.93
2018-03-07T20:03:49.423Z,15.60
2018-03-07T20:06:17.764Z,13.17
2018-03-07T20:08:46.516Z,16.00
2018-03-07T20:11:16.040Z,12.17
2018-03-07T20:13:44.729Z,10.60
2018-03-07T20:16:12.811Z,8.90
2018-03-07T20:18:40.815Z,9.90
2018-03-07T20:21:08.701Z,6.80
2018-03-07T20:23:36.816Z,5.80
2018-03-07T20:26:04.751Z,6.30
2018-03-07T20:28:33.442Z,5.80
2018-03-07T20:31:01.707Z,3.43
2018-03-07T20:33:29.889Z,3.13
2018-03-07T20:35:57.951Z,2.83
2018-03-07T20:38:29.610Z,2.10
2018-03-07T20:40:59.174Z,1.30
2018-03-07T20:43:27.672Z,2.33
2018-03-07T20:45:56.224Z,3.93
2018-03-07T20:48:25.211Z,4.07
2018-03-07T20:50:53.883Z,2.93
2018-03-07T20:53:22.226Z,2.70
2018-03-07T20:55:50.173Z,2.33
2018-03-07T20:58:18.912Z,6.77
2018-03-07T21:00:47.783Z,3.10
2018-03-07T21:03:17.078Z,3.63
2018-03-07T21:05:45.428Z,4.90
2018-03-07T21:08:13.646Z,2.27
2018-03-07T21:10:43.035Z,3.67
2018-03-07T21:13:12.493Z,3.60
2018-03-07T21:15:41.499Z,6.00
2018-03-07T21:18:09.367Z,4.13
2018-03-07T21:20:37.440Z,2.00
2018-03-07T21:23:05.554Z,3.10
2018-03-07T21:25:35.115Z,4.87
2018-03-07T21:28:03.390Z,3.20
2018-03-07T21:30:31.373Z,12.10
2018-03-07T21:32:59.357Z,4.90
2018-03-07T21:35:27.510Z,8.07
2018-03-07T21:37:55.943Z,4.70
2018-03-07T21:40:24.053Z,4.00
2018-03-07T21:42:52.126Z,5.30
2018-03-07T21:45:20.414Z,7.70
2018-03-07T21:47:48.573Z,7.70
2018-03-07T21:50:16.586Z,7.57
2018-03-07T21:52:45.333Z,5.13
2018-03-07T21:55:13.202Z,4.30
2018-03-07T21:57:42.195Z,5.00
2018-03-07T22:00:10.469Z,4.73
2018-03-07T22:02:38.537Z,5.70
2018-03-07T22:05:06.426Z,4.70
2018-03-07T22:07:34.321Z,4.87
2018-03-07T22:10:03.264Z,4.67
2018-03-07T22:12:31.274Z,6.77
2018-03-07T22:14:59.945Z,8.43
2018-03-07T22:17:27.864Z,4.10
2018-03-07T22:19:55.830Z,5.27
2018-03-07T22:22:23.829Z,3.73
2018-03-07T22:24:51.715Z,4.00
2018-03-07T22:27:19.864Z,4.10
2018-03-07T22:29:47.745Z,4.23
2018-03-07T22:32:15.740Z,4.73
2018-03-07T22:34:43.805Z,6.13
2018-03-07T22:37:11.780Z,4.50
2018-03-07T22:39:40.441Z,5.27
2018-03-07T22:42:08.258Z,5.30
2018-03-07T22:44:36.259Z,4.90
2018-03-07T22:47:04.229Z,5.33
2018-03-07T22:49:32.200Z,4.20
2018-03-07T22:52:00.095Z,3.87
2018-03-07T22:54:28.018Z,6.00
2018-03-07T22:56:56.031Z,6.83
2018-03-07T22:59:23.879Z,7.10
2018-03-07T23:01:51.758Z,7.20
2018-03-07T23:04:19.619Z,4.67
2018-03-07T23:06:47.589Z,7.80
2018-03-07T23:09:15.416Z,6.20
2018-03-07T23:11:44.003Z,5.17
2018-03-07T23:14:12.107Z,6.07
2018-03-07T23:16:39.867Z,8.80
2018-03-07T23:19:07.850Z,6.10
2018-03-07T23:21:35.641Z,7.27
2018-03-07T23:24:04.395Z,8.27
2018-03-07T23:26:32.460Z,8.93
2018-03-07T23:29:00.342Z,5.90
2018-03-07T23:31:28.804Z,5.93
2018-03-07T23:33:56.820Z,7.50
2018-03-07T23:36:25.558Z,11.03
2018-03-07T23:38:53.383Z,6.70
2018-03-07T23:41:21.298Z,6.60
2018-03-07T23:43:49.379Z,5.70
2018-03-07T23:46:17.850Z,7.47
2018-03-07T23:48:45.723Z,6.33
2018-03-07T23:51:13.769Z,5.93
2018-03-07T23:53:41.848Z,8.03
2018-03-07T23:56:10.107Z,10.13
2018-03-07T23:58:38.413Z,6.93
